Time;durP1;ratioP1;P1;durP2;ratioP2;P2;SDS_P1;SDS_P2;PMS_P1;PMS_P2;Temp;Humidity;BMP_temperature;BMP_pressure;BME280_temperature;BME280_humidity;BME280_pressure;Samples;Min_cycle;Max_cycle;Signal;HPM_P1;HPM_P2
2021/01/10 00:03:30;;;;;;;6.70;3.93;;;;;;;0.11;100.00;94815.06;10489074;28;20028;-73
2021/01/10 00:08:31;;;;;;;11.70;5.40;;;;;;;0.13;100.00;94802.44;10488861;28;20301;-73
2021/01/10 00:13:31;;;;;;;9.63;6.00;;;;;;;0.14;100.00;94792.69;10488881;28;20341;-73
2021/01/10 00:18:31;;;;;;;7.93;4.50;;;;;;;0.11;100.00;94787.81;10488035;28;20298;-73
2021/01/10 00:23:32;;;;;;;7.25;4.40;;;;;;;0.22;100.00;94810.97;10488703;28;20051;-73
2021/01/10 00:28:32;;;;;;;9.70;4.88;;;;;;;0.21;100.00;94812.00;10488523;28;20036;-73
2021/01/10 00:33:33;;;;;;;8.88;4.53;;;;;;;0.21;100.00;94816.47;10486973;28;20036;-73
2021/01/10 00:38:33;;;;;;;12.03;7.03;;;;;;;0.19;100.00;94815.88;10487796;28;20443;-73
2021/01/10 00:43:33;;;;;;;8.00;5.63;;;;;;;0.24;100.00;94818.69;10488164;28;20492;-73
2021/01/10 00:48:34;;;;;;;11.23;6.40;;;;;;;0.24;100.00;94808.94;10487348;28;20035;-73
2021/01/10 00:53:34;;;;;;;7.67;5.17;;;;;;;0.27;100.00;94810.38;10488026;28;20051;-73
2021/01/10 00:58:35;;;;;;;8.93;6.30;;;;;;;0.29;100.00;94803.88;10488219;28;20094;-73
2021/01/10 01:03:36;;;;;;;8.60;4.53;;;;;;;0.36;100.00;94811.75;10487242;28;20405;-73
2021/01/10 01:08:36;;;;;;;9.50;5.18;;;;;;;0.10;100.00;94787.03;10487487;28;20106;-74
2021/01/10 01:13:36;;;;;;;10.27;4.93;;;;;;;-0.05;100.00;94803.09;10487248;28;20458;-74
2021/01/10 01:18:37;;;;;;;8.07;4.90;;;;;;;-0.05;100.00;94781.94;10486771;28;20048;-73
2021/01/10 01:23:37;;;;;;;8.73;5.93;;;;;;;-0.09;100.00;94796.59;10486814;28;20363;-73
2021/01/10 01:28:38;;;;;;;8.30;4.63;;;;;;;-0.03;100.00;94779.94;10486980;28;20688;-73
2021/01/10 01:33:39;;;;;;;6.53;4.38;;;;;;;0.08;100.00;94785.59;10469207;28;20784;-73
2021/01/10 01:38:39;;;;;;;7.20;4.65;;;;;;;0.11;100.00;94790.47;10468206;28;20025;-73
2021/01/10 01:43:40;;;;;;;6.38;3.95;;;;;;;0.08;100.00;94769.75;10490689;28;20024;-73
2021/01/10 01:48:42;;;;;;;4.00;3.45;;;;;;;0.13;100.00;94756.72;10494491;28;20703;-73
2021/01/10 01:53:42;;;;;;;5.40;4.03;;;;;;;0.13;100.00;94777.88;10493317;28;20111;-73
2021/01/10 01:59:03;;;;;;;5.38;3.30;;;;;;;0.17;100.00;94787.81;10493869;28;20028;-73
2021/01/10 02:04:14;;;;;;;5.50;3.75;;;;;;;0.06;100.00;94804.31;10493812;28;20036;-73
2021/01/10 02:09:16;;;;;;;4.32;2.75;;;;;;;0.12;100.00;94800.03;10493367;28;20063;-73
2021/01/10 02:14:20;;;;;;;6.03;3.22;;;;;;;0.06;100.00;94785.81;10493391;28;20032;-73
2021/01/10 02:19:25;;;;;;;3.47;3.03;;;;;;;0.14;100.00;94766.25;10493182;28;20072;-73
2021/01/10 02:24:25;;;;;;;3.40;2.60;;;;;;;0.10;100.00;94776.44;10492982;28;20125;-73
2021/01/10 02:29:26;;;;;;;3.85;2.83;;;;;;;0.21;100.00;94774.19;10493089;28;20159;-73
2021/01/10 02:34:27;;;;;;;4.78;2.58;;;;;;;0.25;100.00;94781.50;10493077;28;20025;-73
2021/01/10 02:40:02;;;;;;;4.63;2.65;;;;;;;0.25;100.00;94781.50;10474325;28;20458;-73
2021/01/10 02:45:24;;;;;;;4.35;2.85;;;;;;;0.26;100.00;94793.69;10492339;28;20032;-73
2021/01/10 02:50:24;;;;;;;4.50;2.97;;;;;;;0.36;100.00;94817.03;10491914;28;20399;-73
2021/01/10 02:55:25;;;;;;;20.40;3.25;;;;;;;0.48;100.00;94828.59;10491447;28;20029;-73
2021/01/10 03:00:27;;;;;;;8.50;2.83;;;;;;;0.53;100.00;94820.06;10491929;28;20033;-73
2021/01/10 03:05:30;;;;;;;5.60;3.45;;;;;;;0.58;100.00;94814.16;10491113;28;20353;-73
2021/01/10 03:10:30;;;;;;;8.02;4.18;;;;;;;0.47;100.00;94802.38;10491485;28;20035;-73
2021/01/10 03:15:32;;;;;;;5.30;3.95;;;;;;;0.40;100.00;94810.31;10491115;28;20047;-74
2021/01/10 03:20:33;;;;;;;7.85;3.85;;;;;;;0.49;100.00;94811.72;10472642;28;20049;-74
2021/01/10 03:25:33;;;;;;;8.10;3.72;;;;;;;0.58;100.00;94814.94;10490724;28;20490;-74
2021/01/10 03:30:34;;;;;;;9.25;6.35;;;;;;;0.48;100.00;94820.66;10490464;28;20025;-74
2021/01/10 03:35:35;;;;;;;8.02;4.72;;;;;;;0.64;100.00;94834.47;10489984;28;20120;-74
2021/01/10 03:40:35;;;;;;;9.80;5.70;;;;;;;0.63;100.00;94841.59;10489665;28;20033;-74
2021/01/10 03:45:36;;;;;;;9.47;5.03;;;;;;;0.69;100.00;94826.72;10490211;28;20028;-74
2021/01/10 03:50:36;;;;;;;6.43;3.53;;;;;;;0.67;100.00;94824.28;10489176;28;20310;-74
2021/01/10 03:55:36;;;;;;;8.13;3.97;;;;;;;0.57;100.00;94821.25;10489823;28;20028;-74
2021/01/10 04:00:37;;;;;;;5.93;3.30;;;;;;;0.56;100.00;94810.88;10530954;28;20032;-74
2021/01/10 04:05:37;;;;;;;4.30;3.17;;;;;;;0.55;100.00;94807.44;10530466;28;20748;-74
2021/01/10 04:10:37;;;;;;;7.93;3.10;;;;;;;0.57;100.00;94818.59;10530825;28;20032;-74
2021/01/10 04:15:38;;;;;;;6.30;3.03;;;;;;;0.51;100.00;94822.91;10530591;28;20028;-74
2021/01/10 04:20:38;;;;;;;2.60;1.47;;;;;;;0.51;100.00;94830.81;10530081;28;20302;-75
2021/01/10 04:25:40;;;;;;;4.93;2.37;;;;;;;0.51;100.00;94820.25;10530446;28;20274;-75
2021/01/10 04:30:40;;;;;;;5.07;2.08;;;;;;;0.49;100.00;94827.59;10530374;28;20410;-74
2021/01/10 04:35:41;;;;;;;4.23;2.40;;;;;;;0.57;100.00;94828.38;10529838;28;20028;-75
2021/01/10 04:40:41;;;;;;;3.47;2.00;;;;;;;0.49;100.00;94819.66;10529888;28;20321;-75
2021/01/10 04:45:42;;;;;;;6.22;1.95;;;;;;;0.50;100.00;94829.22;10529968;28;20344;-75
2021/01/10 04:50:43;;;;;;;4.50;2.13;;;;;;;0.41;100.00;94827.00;10529590;28;20061;-75
2021/01/10 04:55:45;;;;;;;3.10;1.95;;;;;;;0.41;100.00;94814.59;10529481;28;20457;-74
2021/01/10 05:00:47;;;;;;;4.43;2.00;;;;;;;0.37;100.00;94825.81;10529462;28;20055;-73
2021/01/10 05:05:47;;;;;;;2.58;2.17;;;;;;;0.44;100.00;94819.47;10528875;28;20031;-74
2021/01/10 05:10:47;;;;;;;3.05;1.35;;;;;;;0.48;100.00;94820.66;10528439;28;20027;-74
2021/01/10 05:15:55;;;;;;;3.05;1.58;;;;;;;0.51;100.00;94822.91;10529336;28;20024;-75
2021/01/10 05:20:55;;;;;;;2.65;1.88;;;;;;;0.53;100.00;94833.28;10530749;28;20433;-74
2021/01/10 05:26:16;;;;;;;5.17;1.63;;;;;;;0.60;100.00;94835.88;10502953;28;20042;-74
2021/01/10 05:31:31;;;;;;;2.70;1.63;;;;;;;0.61;100.00;94829.59;10517598;28;20032;-74
2021/01/10 05:36:42;;;;;;;3.78;2.10;;;;;;;0.53;100.00;94829.81;10494961;28;20098;-74
2021/01/10 05:41:49;;;;;;;2.70;1.67;;;;;;;0.47;100.00;94834.91;10494894;28;20063;-74
2021/01/10 05:47:12;;;;;;;3.45;1.75;;;;;;;0.55;100.00;94843.66;10493952;28;20024;-74
2021/01/10 05:52:13;;;;;;;3.22;1.65;;;;;;;0.51;100.00;94854.63;10493553;28;20492;-74
2021/01/10 05:57:17;;;;;;;4.55;1.85;;;;;;;0.50;100.00;94866.25;10493982;28;20547;-74
2021/01/10 06:02:58;;;;;;;2.53;1.73;;;;;;;0.47;100.00;94873.75;10494358;28;20112;-73
2021/01/10 06:07:59;;;;;;;9.13;2.60;;;;;;;0.44;100.00;94867.06;10463113;28;20554;-74
2021/01/10 06:13:04;;;;;;;2.83;1.97;;;;;;;0.29;100.00;94856.72;10493623;28;20020;-73
2021/01/10 06:18:05;;;;;;;3.53;2.13;;;;;;;0.24;100.00;94859.16;10492867;28;20290;-72
2021/01/10 06:23:06;;;;;;;5.10;3.03;;;;;;;0.36;100.00;94853.25;10493053;28;20196;-73
2021/01/10 06:28:35;;;;;;;6.95;3.13;;;;;;;0.36;100.00;94866.47;10492017;28;20091;-73
2021/01/10 06:33:35;;;;;;;;;;;;;;;0.41;100.00;94880.69;10491012;28;20155;-73
2021/01/10 06:38:37;;;;;;;6.65;2.50;;;;;;;0.35;100.00;94852.44;10491920;28;19908;-73
2021/01/10 06:43:45;;;;;;;2.47;1.77;;;;;;;0.47;100.00;94868.47;10492721;28;20032;-73
2021/01/10 06:48:45;;;;;;;3.78;2.20;;;;;;;0.33;100.00;94887.00;10491760;28;20395;-73
2021/01/10 06:53:46;;;;;;;4.78;2.30;;;;;;;0.36;100.00;94890.25;10514318;28;20036;-74
2021/01/10 06:59:18;;;;;;;5.43;3.03;;;;;;;0.50;100.00;94900.63;10492192;28;20042;-74
2021/01/10 07:04:54;;;;;;;5.30;2.83;;;;;;;0.56;100.00;94914.00;10478707;28;20291;-73
2021/01/10 07:09:56;;;;;;;6.32;2.58;;;;;;;0.64;100.00;94919.91;10491339;28;20039;-73
2021/01/10 07:15:22;;;;;;;4.15;2.17;;;;;;;0.73;100.00;94898.53;10490533;28;20137;-73
2021/01/10 07:20:40;;;;;;;3.97;2.22;;;;;;;0.70;100.00;94906.88;10472771;28;20051;-74
2021/01/10 07:25:41;;;;;;;6.00;2.60;;;;;;;0.69;100.00;94908.72;10490745;28;20125;-72
2021/01/10 07:30:41;;;;;;;5.25;2.03;;;;;;;0.70;100.00;94922.75;10489670;28;20119;-73
2021/01/10 07:35:58;;;;;;;7.82;3.00;;;;;;;0.71;100.00;94919.88;10508088;28;20035;-72
2021/01/10 07:41:27;;;;;;;4.00;2.80;;;;;;;0.67;100.00;94916.84;10525117;28;20449;-71
2021/01/10 07:46:49;;;;;;;5.90;3.05;;;;;;;0.71;100.00;94921.72;10506756;28;20411;-71
2021/01/10 07:51:50;;;;;;;4.85;2.83;;;;;;;0.73;100.00;94903.84;10516957;28;20072;-72
2021/01/10 07:57:23;;;;;;;7.57;3.80;;;;;;;0.87;100.00;94905.41;10526352;28;20416;-72
2021/01/10 08:02:49;;;;;;;5.85;3.40;;;;;;;0.98;100.00;94930.44;10526588;28;20165;-72
2021/01/10 08:07:51;;;;;;;7.72;4.13;;;;;;;0.87;100.00;94928.44;10524755;28;20036;-71
2021/01/10 08:12:52;;;;;;;6.72;3.78;;;;;;;0.87;100.00;94931.06;10526219;28;20023;-73
2021/01/10 08:17:53;;;;;;;2.80;2.28;;;;;;;0.92;100.00;94931.25;10512552;28;20036;-73
2021/01/10 08:22:55;;;;;;;7.15;4.32;;;;;;;0.74;100.00;94929.25;10522374;28;20113;-73
2021/01/10 08:27:55;;;;;;;6.07;3.25;;;;;;;0.79;100.00;94919.66;10515157;28;20081;-73
2021/01/10 08:32:55;;;;;;;11.27;4.37;;;;;;;0.76;100.00;94938.59;10516442;28;20839;-72
2021/01/10 08:37:56;;;;;;;8.00;4.37;;;;;;;0.91;100.00;94940.19;10523023;28;20783;-72
2021/01/10 08:43:03;;;;;;;9.40;4.43;;;;;;;0.99;100.00;94946.09;10524326;28;20274;-73
2021/01/10 08:48:05;;;;;;;5.28;3.53;;;;;;;0.89;100.00;94934.31;10523792;28;20359;-73
2021/01/10 08:53:05;;;;;;;12.02;3.80;;;;;;;1.01;100.00;94946.69;10504717;28;20027;-72
2021/01/10 08:58:08;;;;;;;10.13;5.03;;;;;;;1.10;100.00;94949.91;10525175;28;20028;-72
2021/01/10 09:03:13;;;;;;;9.93;5.10;;;;;;;1.08;100.00;94956.47;10525640;28;20035;-73
2021/01/10 09:08:40;;;;;;;11.27;4.85;;;;;;;1.07;100.00;94945.03;10526301;28;20027;-72
2021/01/10 09:13:43;;;;;;;7.60;4.93;;;;;;;1.14;100.00;94931.78;10484479;28;20032;-73
2021/01/10 09:18:47;;;;;;;9.15;4.07;;;;;;;1.08;100.00;94914.09;10485205;28;20120;-73
2021/01/10 09:23:52;;;;;;;7.30;4.10;;;;;;;1.17;100.00;94905.72;10484509;28;20348;-74
2021/01/10 09:28:53;;;;;;;8.20;3.72;;;;;;;1.30;100.00;94917.28;10485122;28;20108;-74
2021/01/10 09:33:54;;;;;;;5.32;3.20;;;;;;;1.23;100.00;94924.41;10487723;28;20418;-74
2021/01/10 09:38:55;;;;;;;6.70;3.85;;;;;;;1.19;100.00;94908.97;10504559;28;20033;-74
2021/01/10 09:44:01;;;;;;;5.60;4.00;;;;;;;1.28;100.00;94896.28;10486646;28;20377;-75
2021/01/10 09:49:01;;;;;;;7.18;4.72;;;;;;;1.30;100.00;94906.69;10504310;28;20090;-74
2021/01/10 09:54:29;;;;;;;7.82;4.20;;;;;;;1.28;100.00;94914.03;10514776;28;20111;-74
2021/01/10 09:59:53;;;;;;;12.43;4.85;;;;;;;1.32;100.00;94899.34;10501993;28;20068;-73
2021/01/10 10:05:06;;;;;;;8.55;4.05;;;;;;;1.26;100.00;94889.59;10507110;28;20131;-74
2021/01/10 10:10:27;;;;;;;5.55;3.28;;;;;;;1.28;100.00;94885.69;10525866;28;20078;-73
2021/01/10 10:15:42;;;;;;;6.45;3.58;;;;;;;1.33;100.00;94854.09;10501247;28;20070;-76
2021/01/10 10:20:43;;;;;;;8.05;3.92;;;;;;;1.49;100.00;94852.81;10497097;28;20051;-75
2021/01/10 10:25:45;;;;;;;6.13;4.10;;;;;;;1.50;100.00;94841.16;10524908;28;20645;-74
2021/01/10 10:30:46;;;;;;;6.90;3.95;;;;;;;1.44;100.00;94828.78;10530368;28;20814;-74
2021/01/10 10:35:46;;;;;;;9.05;3.78;;;;;;;1.46;100.00;94815.34;10523548;28;20024;-74
2021/01/10 10:40:47;;;;;;;7.80;4.20;;;;;;;1.45;100.00;94835.72;10526522;28;20067;-74
2021/01/10 10:45:47;;;;;;;10.30;3.80;;;;;;;1.51;100.00;94834.06;10527133;28;20695;-75
2021/01/10 10:50:49;;;;;;;8.70;4.27;;;;;;;1.46;100.00;94828.59;10523007;28;20028;-75
2021/01/10 10:55:50;;;;;;;10.48;6.20;;;;;;;1.44;100.00;94827.97;10527825;28;20020;-74
2021/01/10 11:00:52;;;;;;;10.15;4.63;;;;;;;1.30;100.00;94825.41;10526826;28;20407;-74
2021/01/10 11:05:52;;;;;;;7.13;3.88;;;;;;;1.16;100.00;94823.88;10509222;28;20033;-75
2021/01/10 11:10:53;;;;;;;5.82;3.15;;;;;;;1.06;100.00;94826.16;10510236;28;20020;-73
2021/01/10 11:15:53;;;;;;;7.33;3.97;;;;;;;1.07;100.00;94830.44;10499202;28;20490;-74
2021/01/10 11:20:53;;;;;;;9.50;4.23;;;;;;;1.24;100.00;94815.66;10525967;28;20790;-74
2021/01/10 11:25:54;;;;;;;12.40;3.50;;;;;;;1.41;100.00;94816.00;10489697;28;20041;-74
2021/01/10 11:30:54;;;;;;;5.40;2.97;;;;;;;1.58;100.00;94804.84;10501219;28;20028;-74
2021/01/10 11:35:55;;;;;;;7.17;2.27;;;;;;;1.59;100.00;94802.00;10475902;28;20033;-74
2021/01/10 11:40:55;;;;;;;4.30;2.28;;;;;;;1.56;100.00;94789.19;10526232;28;20024;-74
2021/01/10 11:45:56;;;;;;;5.88;2.05;;;;;;;1.40;100.00;94787.88;10523367;28;20110;-75
2021/01/10 11:50:57;;;;;;;2.92;1.73;;;;;;;1.15;100.00;94780.69;10520339;28;20031;-74
2021/01/10 11:55:58;;;;;;;3.63;1.67;;;;;;;1.02;100.00;94760.41;10515519;28;20032;-74
2021/01/10 12:00:59;;;;;;;7.38;2.40;;;;;;;1.09;100.00;94746.31;10518962;28;20054;-74
2021/01/10 12:06:00;;;;;;;6.35;3.13;;;;;;;1.22;100.00;94738.31;10497413;28;20442;-74
2021/01/10 12:11:00;;;;;;;3.85;2.13;;;;;;;1.01;100.00;94742.91;10468967;28;20039;-75
2021/01/10 12:16:01;;;;;;;3.05;1.85;;;;;;;0.96;100.00;94752.50;10488209;28;20164;-75
2021/01/10 12:21:04;;;;;;;6.72;1.95;;;;;;;0.91;100.00;94758.44;10487669;28;20065;-74
2021/01/10 12:26:12;;;;;;;6.78;2.45;;;;;;;0.95;100.00;94777.34;10468335;28;20206;-74
2021/01/10 12:31:13;;;;;;;4.60;2.70;;;;;;;0.91;100.00;94779.63;10467668;28;20020;-74
2021/01/10 12:36:14;;;;;;;3.67;2.05;;;;;;;0.96;100.00;94779.81;10468402;28;20028;-75
2021/01/10 12:41:14;;;;;;;3.85;2.15;;;;;;;1.11;100.00;94798.03;10485246;28;20034;-74
2021/01/10 12:46:14;;;;;;;5.73;2.67;;;;;;;1.29;100.00;94804.44;10485835;28;20028;-74
2021/01/10 12:51:15;;;;;;;3.77;2.53;;;;;;;1.41;100.00;94802.75;10485693;28;20829;-75
2021/01/10 12:56:15;;;;;;;6.22;1.90;;;;;;;1.48;100.00;94798.22;10485559;28;20781;-75
2021/01/10 13:01:16;;;;;;;7.78;2.30;;;;;;;1.50;100.00;94808.59;10485803;28;20029;-75
2021/01/10 13:06:25;;;;;;;4.43;2.13;;;;;;;1.51;100.00;94818.16;10484980;28;20102;-75
2021/01/10 13:11:25;;;;;;;5.10;2.00;;;;;;;1.52;100.00;94793.28;10484666;28;20275;-74
2021/01/10 13:16:26;;;;;;;5.40;2.63;;;;;;;1.57;100.00;94787.34;10492783;28;20020;-73
2021/01/10 13:21:30;;;;;;;5.93;3.35;;;;;;;1.53;100.00;94771.06;10526513;28;20143;-74
2021/01/10 13:26:31;;;;;;;8.68;4.30;;;;;;;1.40;100.00;94774.63;10527225;28;20706;-74
2021/01/10 13:31:35;;;;;;;8.80;4.57;;;;;;;1.29;100.00;94770.84;10526158;28;20036;-74
2021/01/10 13:36:36;;;;;;;11.23;5.20;;;;;;;1.35;100.00;94785.88;10525104;28;20020;-74
2021/01/10 13:41:36;;;;;;;7.90;3.73;;;;;;;1.25;100.00;94769.63;10533615;28;20032;-75
2021/01/10 13:46:37;;;;;;;8.10;4.60;;;;;;;1.25;100.00;94803.25;10534601;28;20273;-75
2021/01/10 13:51:37;;;;;;;16.17;4.03;;;;;;;1.21;100.00;94816.09;10516508;28;20301;-73
2021/01/10 13:56:41;;;;;;;6.85;3.97;;;;;;;1.33;100.00;94803.00;10533474;28;20027;-75
2021/01/10 14:01:42;;;;;;;3.17;2.28;;;;;;;1.20;100.00;94780.06;10490479;28;20480;-74
2021/01/10 14:06:44;;;;;;;6.30;2.67;;;;;;;1.04;100.00;94801.75;10491432;28;20104;-74
2021/01/10 14:11:44;;;;;;;7.65;4.25;;;;;;;1.16;100.00;94784.16;10491706;28;20032;-74
2021/01/10 14:16:45;;;;;;;7.40;4.45;;;;;;;1.15;100.00;94754.22;10500394;28;20039;-74
2021/01/10 14:21:45;;;;;;;10.33;4.33;;;;;;;1.10;100.00;94764.63;10532280;28;20056;-73
2021/01/10 14:26:47;;;;;;;23.38;9.45;;;;;;;1.16;100.00;94716.16;10532252;28;20137;-74
2021/01/10 14:31:49;;;;;;;21.98;9.07;;;;;;;1.00;100.00;94717.47;10498833;28;20051;-75
2021/01/10 14:36:51;;;;;;;13.50;5.90;;;;;;;1.01;100.00;94675.94;10490802;28;20036;-75
2021/01/10 14:41:56;;;;;;;10.35;4.82;;;;;;;0.97;100.00;94693.28;10506125;28;20044;-74
2021/01/10 14:46:56;;;;;;;6.25;4.15;;;;;;;0.99;100.00;94710.56;10512602;28;20556;-75
2021/01/10 14:51:56;;;;;;;8.37;3.80;;;;;;;0.99;100.00;94705.28;10505169;28;20036;-75
2021/01/10 14:56:57;;;;;;;8.77;3.58;;;;;;;1.05;100.00;94755.72;10489190;28;20316;-75
2021/01/10 15:01:57;;;;;;;4.40;2.50;;;;;;;1.21;100.00;94778.22;10491928;28;20130;-73
2021/01/10 15:06:58;;;;;;;10.27;5.67;;;;;;;1.16;100.00;94777.03;10529518;28;20106;-74
2021/01/10 15:11:58;;;;;;;9.00;4.83;;;;;;;1.28;100.00;94765.75;10529380;28;20339;-74
2021/01/10 15:16:58;;;;;;;3.20;1.90;;;;;;;1.22;100.00;94732.22;10530112;28;20043;-74
2021/01/10 15:21:59;;;;;;;2.03;1.10;;;;;;;1.08;100.00;94724.34;10530900;28;20134;-74
2021/01/10 15:26:59;;;;;;;5.77;2.97;;;;;;;1.04;100.00;94732.94;10530265;28;20281;-74
2021/01/10 15:32:00;;;;;;;7.03;2.47;;;;;;;1.08;100.00;94671.41;10512600;28;20039;-74
2021/01/10 15:37:01;;;;;;;7.30;4.07;;;;;;;1.16;100.00;94676.44;10502221;28;20106;-75
2021/01/10 15:42:01;;;;;;;7.00;2.92;;;;;;;1.17;100.00;94680.72;10530071;28;20028;-75
2021/01/10 15:47:02;;;;;;;6.75;3.22;;;;;;;1.17;100.00;94664.84;10490346;28;20024;-74
2021/01/10 15:52:02;;;;;;;6.60;3.08;;;;;;;1.22;100.00;94631.63;10514882;28;20028;-74
2021/01/10 15:57:03;;;;;;;10.07;4.10;;;;;;;1.25;100.00;94612.66;10511011;28;20459;-75
2021/01/10 16:02:03;;;;;;;9.88;3.78;;;;;;;1.25;100.00;94575.59;10529006;28;20089;-75
2021/01/10 16:07:03;;;;;;;12.40;4.70;;;;;;;1.29;100.00;94572.28;10486072;28;20056;-75
2021/01/10 16:12:04;;;;;;;7.37;3.87;;;;;;;1.25;100.00;94563.16;10496706;28;20266;-75
2021/01/10 16:17:05;;;;;;;7.90;4.15;;;;;;;1.26;100.00;94558.69;10497382;28;20028;-75
2021/01/10 16:22:05;;;;;;;7.37;3.57;;;;;;;1.28;100.00;94538.88;10528167;28;20048;-76
2021/01/10 16:27:09;;;;;;;3.85;1.50;;;;;;;1.24;100.00;94518.38;10527943;28;20270;-74
2021/01/10 16:32:10;;;;;;;2.70;1.63;;;;;;;1.23;100.00;94522.03;10485756;28;20120;-74
2021/01/10 16:37:10;;;;;;;5.32;2.45;;;;;;;1.18;100.00;94552.63;10483643;28;20395;-74
2021/01/10 16:42:11;;;;;;;3.93;2.57;;;;;;;1.27;100.00;94569.03;10484161;28;20036;-75
2021/01/10 16:47:11;;;;;;;7.33;2.00;;;;;;;1.36;100.00;94567.72;10484435;28;20286;-75
2021/01/10 16:52:12;;;;;;;5.35;3.08;;;;;;;1.40;100.00;94586.63;10484980;28;20340;-75
2021/01/10 16:57:12;;;;;;;3.80;2.00;;;;;;;1.51;100.00;94601.78;10485808;28;20028;-76
2021/01/10 17:02:12;;;;;;;4.30;1.90;;;;;;;1.49;100.00;94581.84;10485372;28;20043;-75
2021/01/10 17:07:15;;;;;;;4.60;2.10;;;;;;;1.62;100.00;94613.50;10485143;28;20043;-75
2021/01/10 17:12:15;;;;;;;4.32;2.60;;;;;;;1.70;100.00;94657.41;10517825;28;20317;-75
2021/01/10 17:17:16;;;;;;;10.53;3.97;;;;;;;1.77;100.00;94665.31;10535072;28;20151;-75
2021/01/10 17:22:16;;;;;;;10.18;4.75;;;;;;;1.81;100.00;94632.84;10534877;28;20048;-75
2021/01/10 17:27:18;;;;;;;9.02;4.97;;;;;;;1.80;100.00;94585.38;10536007;28;20498;-75
2021/01/10 17:32:18;;;;;;;8.02;4.07;;;;;;;1.70;100.00;94557.56;10511245;28;20047;-75
2021/01/10 17:37:18;;;;;;;5.20;3.10;;;;;;;1.60;100.00;94583.75;10510478;28;20093;-75
2021/01/10 17:42:19;;;;;;;5.97;3.50;;;;;;;1.53;100.00;94556.53;10529366;28;20305;-75
2021/01/10 17:47:19;;;;;;;5.53;3.50;;;;;;;1.38;100.00;94542.84;10530760;28;20278;-74
2021/01/10 17:52:20;;;;;;;6.57;3.45;;;;;;;1.16;100.00;94552.03;10527587;28;20035;-75
2021/01/10 17:57:20;;;;;;;4.05;2.78;;;;;;;1.03;100.00;94530.97;10528086;28;20035;-75
2021/01/10 18:02:21;;;;;;;5.20;2.95;;;;;;;1.00;100.00;94515.56;10512779;28;20027;-75
2021/01/10 18:07:25;;;;;;;6.93;4.45;;;;;;;0.92;100.00;94523.75;10526355;28;20397;-74
2021/01/10 18:12:27;;;;;;;8.38;4.40;;;;;;;1.02;100.00;94510.88;10527053;28;20042;-74
2021/01/10 18:17:28;;;;;;;7.90;3.92;;;;;;;1.13;100.00;94528.66;10528326;28;20032;-75
2021/01/10 18:22:28;;;;;;;8.98;4.25;;;;;;;1.10;100.00;94512.41;10526205;28;20048;-75
2021/01/10 18:27:29;;;;;;;6.63;3.87;;;;;;;1.20;100.00;94510.06;10531780;28;20395;-74
2021/01/10 18:32:29;;;;;;;7.13;3.90;;;;;;;1.13;100.00;94518.06;10513495;28;20278;-74
2021/01/10 18:37:30;;;;;;;6.60;3.97;;;;;;;1.08;100.00;94523.22;10524961;28;20051;-75
2021/01/10 18:42:30;;;;;;;6.10;4.17;;;;;;;1.16;100.00;94507.03;10531787;28;20468;-75
2021/01/10 18:47:31;;;;;;;8.00;3.67;;;;;;;1.13;100.00;94502.19;10502342;28;20304;-75
2021/01/10 18:52:31;;;;;;;6.57;4.25;;;;;;;1.23;100.00;94490.25;10526182;28;20291;-75
2021/01/10 18:57:32;;;;;;;7.67;4.00;;;;;;;1.25;100.00;94536.66;10525415;28;20446;-75
2021/01/10 19:02:33;;;;;;;6.18;4.13;;;;;;;1.40;100.00;94551.41;10471699;28;20361;-75
2021/01/10 19:07:38;;;;;;;5.27;3.13;;;;;;;1.54;100.00;94606.63;10511569;28;20027;-75
2021/01/10 19:12:44;;;;;;;11.93;5.10;;;;;;;1.63;100.00;94640.78;10509464;28;20368;-75
2021/01/10 19:17:44;;;;;;;5.80;3.63;;;;;;;1.75;100.00;94625.00;10502094;28;20029;-75
2021/01/10 19:22:44;;;;;;;7.27;4.00;;;;;;;1.74;100.00;94632.09;10486749;28;20053;-75
2021/01/10 19:27:45;;;;;;;10.90;5.47;;;;;;;1.72;100.00;94647.44;10485630;28;20267;-75
2021/01/10 19:32:45;;;;;;;8.90;5.47;;;;;;;1.68;100.00;94668.25;10484891;28;20298;-75
2021/01/10 19:37:47;;;;;;;14.57;6.37;;;;;;;1.80;100.00;94673.63;10486267;28;20118;-75
2021/01/10 19:42:47;;;;;;;10.05;5.43;;;;;;;1.87;100.00;94684.97;10501512;28;20278;-75
2021/01/10 19:47:48;;;;;;;14.50;6.60;;;;;;;1.89;100.00;94679.44;10513244;28;20043;-75
2021/01/10 19:52:48;;;;;;;11.13;5.77;;;;;;;1.88;100.00;94712.28;10524633;28;20031;-75
2021/01/10 19:57:50;;;;;;;10.10;5.18;;;;;;;1.94;100.00;94711.41;10507676;28;20297;-75
2021/01/10 20:02:51;;;;;;;7.55;4.78;;;;;;;2.00;100.00;94693.81;10490199;28;20039;-75
2021/01/10 20:07:52;;;;;;;6.20;3.80;;;;;;;1.92;100.00;94688.81;10529131;28;20032;-75
2021/01/10 20:12:52;;;;;;;5.65;3.38;;;;;;;1.84;100.00;94688.06;10504938;28;20765;-74
2021/01/10 20:17:53;;;;;;;7.37;3.60;;;;;;;1.78;100.00;94683.63;10486744;28;20037;-74
2021/01/10 20:22:53;;;;;;;10.73;5.37;;;;;;;1.51;100.00;94686.53;10485920;28;20048;-74
2021/01/10 20:27:53;;;;;;;7.00;4.03;;;;;;;1.61;100.00;94679.94;10494214;28;20310;-74
2021/01/10 20:32:54;;;;;;;34.00;12.80;;;;;;;1.63;100.00;94694.59;10486523;28;20282;-75
2021/01/10 20:37:54;;;;;;;108.85;38.13;;;;;;;1.53;100.00;94695.09;10501837;28;20286;-74
2021/01/10 20:42:54;;;;;;;120.80;46.17;;;;;;;1.45;100.00;94707.78;10514920;28;20111;-79
2021/01/10 20:47:55;;;;;;;26.33;12.47;;;;;;;1.56;100.00;94687.72;10530651;28;20059;-78
2021/01/10 20:52:55;;;;;;;16.77;8.83;;;;;;;1.59;100.00;94666.94;10499367;28;20292;-77
2021/01/10 20:57:56;;;;;;;16.67;9.30;;;;;;;1.61;100.00;94632.25;10468593;28;20036;-77
2021/01/10 21:02:56;;;;;;;19.60;10.48;;;;;;;1.59;100.00;94597.22;10518627;28;20476;-77
2021/01/10 21:07:56;;;;;;;20.47;9.97;;;;;;;1.66;100.00;94625.28;10527909;28;20475;-78
2021/01/10 21:12:57;;;;;;;27.47;13.00;;;;;;;1.70;100.00;94637.06;10528533;28;20277;-78
2021/01/10 21:17:57;;;;;;;33.07;15.17;;;;;;;1.70;100.00;94617.69;10527827;28;20432;-78
2021/01/10 21:22:58;;;;;;;27.40;14.52;;;;;;;1.63;100.00;94599.22;10527628;28;20056;-78
2021/01/10 21:27:58;;;;;;;30.60;15.15;;;;;;;1.64;100.00;94597.38;10527718;28;20445;-78
2021/01/10 21:33:01;;;;;;;24.33;13.80;;;;;;;1.60;100.00;94583.75;10527554;28;20024;-78
2021/01/10 21:38:02;;;;;;;17.15;10.15;;;;;;;1.49;100.00;94564.13;10528167;28;20301;-78
2021/01/10 21:43:02;;;;;;;9.33;5.80;;;;;;;1.34;100.00;94561.84;10527945;28;20035;-78
2021/01/10 21:48:03;;;;;;;5.60;3.80;;;;;;;1.25;100.00;94538.53;10510452;28;20331;-78
2021/01/10 21:53:06;;;;;;;6.25;3.38;;;;;;;1.11;100.00;94528.06;10509760;28;20400;-78
2021/01/10 21:58:06;;;;;;;6.32;3.38;;;;;;;1.21;100.00;94539.97;10528281;28;20111;-78
2021/01/10 22:03:07;;;;;;;3.20;2.27;;;;;;;1.34;100.00;94538.00;10535402;28;20023;-78
2021/01/10 22:08:07;;;;;;;4.13;2.40;;;;;;;1.51;100.00;94532.13;10517268;28;20266;-78
2021/01/10 22:13:07;;;;;;;6.27;3.17;;;;;;;1.57;100.00;94557.72;10535215;28;20441;-78
2021/01/10 22:18:08;;;;;;;3.37;2.37;;;;;;;1.63;100.00;94550.72;10534775;28;20293;-77
2021/01/10 22:23:09;;;;;;;4.95;3.25;;;;;;;1.60;100.00;94528.13;10535165;28;20047;-77
2021/01/10 22:28:10;;;;;;;9.20;3.53;;;;;;;1.67;100.00;94536.00;10533982;28;20032;-77
2021/01/10 22:33:11;;;;;;;5.28;2.85;;;;;;;1.69;100.00;94544.56;10515907;28;20031;-77
2021/01/10 22:38:11;;;;;;;6.00;2.83;;;;;;;1.77;100.00;94507.13;10506128;28;20051;-77
2021/01/10 22:43:12;;;;;;;6.97;3.30;;;;;;;1.94;100.00;94504.69;10507745;28;20347;-77
2021/01/10 22:48:12;;;;;;;11.27;3.40;;;;;;;1.91;100.00;94491.88;10534033;28;20284;-77
2021/01/10 22:53:12;;;;;;;8.43;3.37;;;;;;;1.93;100.00;94484.53;10533082;28;20266;-77
2021/01/10 22:58:13;;;;;;;12.17;4.83;;;;;;;1.81;100.00;94473.88;10532364;28;20355;-77
2021/01/10 23:03:13;;;;;;;13.00;5.43;;;;;;;1.76;100.00;94470.28;10533304;28;20028;-77
2021/01/10 23:08:14;;;;;;;13.38;5.60;;;;;;;1.81;100.00;94476.50;10532258;28;20024;-76
2021/01/10 23:13:14;;;;;;;11.00;5.67;;;;;;;1.77;100.00;94485.94;10513222;28;20032;-78
2021/01/10 23:18:14;;;;;;;8.00;4.63;;;;;;;1.82;100.00;94470.19;10532509;28;20031;-77
2021/01/10 23:23:16;;;;;;;10.15;4.78;;;;;;;1.82;100.00;94467.53;10532779;28;20451;-78
2021/01/10 23:28:17;;;;;;;13.00;4.70;;;;;;;1.74;100.00;94451.16;10532502;28;20028;-78